sensor_id;sensor_type;location;lat;lon;timestamp;P1;durP1;ratioP1;P2;durP2;ratioP2
62711;SDS011;48772;55.586;37.730;2022-08-18T00:00:05;22.20;;;7.60;;
62711;SDS011;48772;55.586;37.730;2022-08-18T00:02:36;14.30;;;7.03;;
62711;SDS011;48772;55.586;37.730;2022-08-18T00:05:03;12.73;;;6.95;;
62711;SDS011;48772;55.586;37.730;2022-08-18T00:07:30;12.52;;;6.55;;
62711;SDS011;48772;55.586;37.730;2022-08-18T00:09:57;12.93;;;7.15;;
62711;SDS011;48772;55.586;37.730;2022-08-18T00:12:29;20.10;;;7.25;;
62711;SDS011;48772;55.586;37.730;2022-08-18T00:14:57;16.05;;;7.22;;
62711;SDS011;48772;55.586;37.730;2022-08-18T00:17:32;12.83;;;7.37;;
62711;SDS011;48772;55.586;37.730;2022-08-18T00:19:59;13.25;;;7.00;;
62711;SDS011;48772;55.586;37.730;2022-08-18T00:22:25;13.13;;;7.70;;
62711;SDS011;48772;55.586;37.730;2022-08-18T00:24:52;17.02;;;7.30;;
62711;SDS011;48772;55.586;37.730;2022-08-18T00:27:21;12.55;;;7.00;;
62711;SDS011;48772;55.586;37.730;2022-08-18T00:29:50;14.48;;;7.32;;
62711;SDS011;48772;55.586;37.730;2022-08-18T00:32:19;10.82;;;6.88;;
62711;SDS011;48772;55.586;37.730;2022-08-18T00:34:52;13.60;;;6.80;;
62711;SDS011;48772;55.586;37.730;2022-08-18T00:37:19;22.40;;;7.15;;
62711;SDS011;48772;55.586;37.730;2022-08-18T00:39:46;13.50;;;6.95;;
62711;SDS011;48772;55.586;37.730;2022-08-18T00:42:16;12.27;;;6.82;;
62711;SDS011;48772;55.586;37.730;2022-08-18T00:44:45;13.70;;;6.97;;
62711;SDS011;48772;55.586;37.730;2022-08-18T00:47:11;7.75;;;6.78;;
62711;SDS011;48772;55.586;37.730;2022-08-18T00:49:37;13.88;;;6.88;;
62711;SDS011;48772;55.586;37.730;2022-08-18T00:52:06;13.48;;;6.63;;
62711;SDS011;48772;55.586;37.730;2022-08-18T00:54:33;12.35;;;6.88;;
62711;SDS011;48772;55.586;37.730;2022-08-18T00:57:02;15.68;;;7.30;;
62711;SDS011;48772;55.586;37.730;2022-08-18T00:59:33;13.35;;;6.75;;
62711;SDS011;48772;55.586;37.730;2022-08-18T01:02:01;10.02;;;6.80;;
62711;SDS011;48772;55.586;37.730;2022-08-18T01:04:35;11.07;;;6.55;;
62711;SDS011;48772;55.586;37.730;2022-08-18T01:07:08;12.18;;;6.80;;
62711;SDS011;48772;55.586;37.730;2022-08-18T01:09:38;13.52;;;6.63;;
62711;SDS011;48772;55.586;37.730;2022-08-18T01:12:04;13.50;;;6.82;;
62711;SDS011;48772;55.586;37.730;2022-08-18T01:14:30;12.15;;;6.75;;
62711;SDS011;48772;55.586;37.730;2022-08-18T01:16:56;15.38;;;6.70;;
62711;SDS011;48772;55.586;37.730;2022-08-18T01:19:57;11.48;;;6.15;;
62711;SDS011;48772;55.586;37.730;2022-08-18T01:25:17;12.05;;;6.78;;
62711;SDS011;48772;55.586;37.730;2022-08-18T01:28:04;12.85;;;6.47;;
62711;SDS011;48772;55.586;37.730;2022-08-18T01:30:30;12.18;;;6.95;;
62711;SDS011;48772;55.586;37.730;2022-08-18T01:32:59;10.18;;;6.53;;
62711;SDS011;48772;55.586;37.730;2022-08-18T01:35:25;8.32;;;6.30;;
62711;SDS011;48772;55.586;37.730;2022-08-18T01:37:52;10.30;;;6.55;;
62711;SDS011;48772;55.586;37.730;2022-08-18T01:40:19;15.23;;;6.93;;
62711;SDS011;48772;55.586;37.730;2022-08-18T01:42:47;12.48;;;6.90;;
62711;SDS011;48772;55.586;37.730;2022-08-18T01:45:14;12.90;;;6.82;;
62711;SDS011;48772;55.586;37.730;2022-08-18T01:47:41;14.90;;;7.10;;
62711;SDS011;48772;55.586;37.730;2022-08-18T01:50:07;9.55;;;6.80;;
62711;SDS011;48772;55.586;37.730;2022-08-18T01:52:36;13.13;;;7.18;;
62711;SDS011;48772;55.586;37.730;2022-08-18T01:55:03;11.82;;;7.10;;
62711;SDS011;48772;55.586;37.730;2022-08-18T01:57:32;14.48;;;7.22;;
62711;SDS011;48772;55.586;37.730;2022-08-18T01:59:59;10.45;;;7.35;;
62711;SDS011;48772;55.586;37.730;2022-08-18T02:02:27;13.52;;;7.13;;
62711;SDS011;48772;55.586;37.730;2022-08-18T02:04:59;14.90;;;7.70;;
62711;SDS011;48772;55.586;37.730;2022-08-18T02:07:29;15.00;;;8.05;;
62711;SDS011;48772;55.586;37.730;2022-08-18T02:09:55;10.80;;;7.75;;
62711;SDS011;48772;55.586;37.730;2022-08-18T02:12:21;15.27;;;8.18;;
62711;SDS011;48772;55.586;37.730;2022-08-18T02:14:47;21.58;;;8.15;;
62711;SDS011;48772;55.586;37.730;2022-08-18T02:17:14;21.10;;;8.65;;
62711;SDS011;48772;55.586;37.730;2022-08-18T02:19:43;18.10;;;9.48;;
62711;SDS011;48772;55.586;37.730;2022-08-18T02:22:12;17.13;;;10.18;;
62711;SDS011;48772;55.586;37.730;2022-08-18T02:24:41;21.25;;;10.43;;
62711;SDS011;48772;55.586;37.730;2022-08-18T02:27:07;18.30;;;10.52;;
62711;SDS011;48772;55.586;37.730;2022-08-18T02:29:34;22.67;;;11.32;;
62711;SDS011;48772;55.586;37.730;2022-08-18T02:32:00;17.45;;;10.50;;
62711;SDS011;48772;55.586;37.730;2022-08-18T02:34:26;19.73;;;11.93;;
62711;SDS011;48772;55.586;37.730;2022-08-18T02:36:52;14.73;;;11.23;;
62711;SDS011;48772;55.586;37.730;2022-08-18T02:39:18;21.08;;;12.02;;
62711;SDS011;48772;55.586;37.730;2022-08-18T02:41:44;18.80;;;12.25;;
62711;SDS011;48772;55.586;37.730;2022-08-18T02:44:10;23.35;;;13.27;;
62711;SDS011;48772;55.586;37.730;2022-08-18T02:46:36;20.40;;;13.90;;
62711;SDS011;48772;55.586;37.730;2022-08-18T02:49:02;25.58;;;14.32;;
62711;SDS011;48772;55.586;37.730;2022-08-18T02:51:30;23.27;;;14.80;;
62711;SDS011;48772;55.586;37.730;2022-08-18T02:53:55;26.73;;;15.82;;
62711;SDS011;48772;55.586;37.730;2022-08-18T02:56:25;25.40;;;16.40;;
62711;SDS011;48772;55.586;37.730;2022-08-18T02:58:55;27.38;;;16.05;;
62711;SDS011;48772;55.586;37.730;2022-08-18T03:01:23;23.95;;;16.25;;
62711;SDS011;48772;55.586;37.730;2022-08-18T03:03:51;22.15;;;16.58;;
62711;SDS011;48772;55.586;37.730;2022-08-18T03:06:18;27.15;;;17.52;;
62711;SDS011;48772;55.586;37.730;2022-08-18T03:08:45;26.08;;;16.75;;
62711;SDS011;48772;55.586;37.730;2022-08-18T03:11:14;27.85;;;17.88;;
62711;SDS011;48772;55.586;37.730;2022-08-18T03:13:44;31.17;;;17.77;;
62711;SDS011;48772;55.586;37.730;2022-08-18T03:16:11;28.92;;;17.90;;
62711;SDS011;48772;55.586;37.730;2022-08-18T03:18:37;26.08;;;16.67;;
62711;SDS011;48772;55.586;37.730;2022-08-18T03:21:09;28.95;;;16.33;;
62711;SDS011;48772;55.586;37.730;2022-08-18T03:23:39;32.50;;;17.38;;
62711;SDS011;48772;55.586;37.730;2022-08-18T03:26:10;22.75;;;16.85;;
62711;SDS011;48772;55.586;37.730;2022-08-18T03:28:38;27.38;;;17.65;;
62711;SDS011;48772;55.586;37.730;2022-08-18T03:31:09;25.30;;;17.58;;
62711;SDS011;48772;55.586;37.730;2022-08-18T03:33:37;31.23;;;17.85;;
62711;SDS011;48772;55.586;37.730;2022-08-18T03:36:06;39.60;;;19.08;;
62711;SDS011;48772;55.586;37.730;2022-08-18T03:38:34;31.85;;;18.23;;
62711;SDS011;48772;55.586;37.730;2022-08-18T03:41:00;24.85;;;17.02;;
62711;SDS011;48772;55.586;37.730;2022-08-18T03:43:26;28.75;;;17.90;;
62711;SDS011;48772;55.586;37.730;2022-08-18T03:45:52;29.88;;;18.38;;
62711;SDS011;48772;55.586;37.730;2022-08-18T03:48:19;30.27;;;19.33;;
62711;SDS011;48772;55.586;37.730;2022-08-18T03:50:46;25.17;;;17.85;;
62711;SDS011;48772;55.586;37.730;2022-08-18T03:53:13;32.88;;;19.70;;
62711;SDS011;48772;55.586;37.730;2022-08-18T03:55:39;30.52;;;18.67;;
62711;SDS011;48772;55.586;37.730;2022-08-18T03:58:06;34.60;;;20.90;;
62711;SDS011;48772;55.586;37.730;2022-08-18T04:00:36;36.15;;;23.30;;
62711;SDS011;48772;55.586;37.730;2022-08-18T04:03:02;32.92;;;21.55;;
62711;SDS011;48772;55.586;37.730;2022-08-18T04:05:28;45.72;;;33.45;;
62711;SDS011;48772;55.586;37.730;2022-08-18T04:07:54;56.92;;;35.58;;
62711;SDS011;48772;55.586;37.730;2022-08-18T04:10:22;56.95;;;37.30;;
62711;SDS011;48772;55.586;37.730;2022-08-18T04:12:49;53.95;;;36.88;;
62711;SDS011;48772;55.586;37.730;2022-08-18T04:15:15;56.42;;;39.85;;
62711;SDS011;48772;55.586;37.730;2022-08-18T04:17:41;65.63;;;40.88;;
62711;SDS011;48772;55.586;37.730;2022-08-18T04:20:09;57.38;;;38.58;;
62711;SDS011;48772;55.586;37.730;2022-08-18T04:22:37;62.97;;;40.35;;
62711;SDS011;48772;55.586;37.730;2022-08-18T04:25:03;70.32;;;43.30;;
62711;SDS011;48772;55.586;37.730;2022-08-18T04:27:29;64.82;;;44.65;;
62711;SDS011;48772;55.586;37.730;2022-08-18T04:29:55;68.00;;;44.97;;
62711;SDS011;48772;55.586;37.730;2022-08-18T04:32:21;70.63;;;49.03;;
62711;SDS011;48772;55.586;37.730;2022-08-18T04:34:48;60.53;;;42.78;;
62711;SDS011;48772;55.586;37.730;2022-08-18T04:37:14;65.45;;;45.25;;
62711;SDS011;48772;55.586;37.730;2022-08-18T04:39:41;81.03;;;55.47;;
62711;SDS011;48772;55.586;37.730;2022-08-18T04:42:08;80.32;;;53.85;;
62711;SDS011;48772;55.586;37.730;2022-08-18T04:44:36;72.70;;;50.85;;
62711;SDS011;48772;55.586;37.730;2022-08-18T04:47:03;73.47;;;48.40;;
62711;SDS011;48772;55.586;37.730;2022-08-18T04:49:29;63.63;;;47.63;;
62711;SDS011;48772;55.586;37.730;2022-08-18T04:51:56;73.25;;;47.78;;
62711;SDS011;48772;55.586;37.730;2022-08-18T04:54:44;69.32;;;45.25;;
62711;SDS011;48772;55.586;37.730;2022-08-18T04:57:11;64.85;;;43.47;;
62711;SDS011;48772;55.586;37.730;2022-08-18T04:59:39;63.70;;;44.78;;
62711;SDS011;48772;55.586;37.730;2022-08-18T05:02:08;68.40;;;44.80;;
62711;SDS011;48772;55.586;37.730;2022-08-18T05:04:34;61.40;;;43.05;;
62711;SDS011;48772;55.586;37.730;2022-08-18T05:07:11;55.40;;;40.97;;
62711;SDS011;48772;55.586;37.730;2022-08-18T05:09:38;60.30;;;41.20;;
62711;SDS011;48772;55.586;37.730;2022-08-18T05:12:06;61.05;;;41.33;;
62711;SDS011;48772;55.586;37.730;2022-08-18T05:14:32;58.20;;;39.42;;
62711;SDS011;48772;55.586;37.730;2022-08-18T05:17:00;52.60;;;35.70;;
62711;SDS011;48772;55.586;37.730;2022-08-18T05:19:28;48.00;;;33.83;;
62711;SDS011;48772;55.586;37.730;2022-08-18T05:21:56;45.70;;;33.03;;
62711;SDS011;48772;55.586;37.730;2022-08-18T05:24:23;47.05;;;33.45;;
62711;SDS011;48772;55.586;37.730;2022-08-18T05:26:51;45.10;;;30.80;;
62711;SDS011;48772;55.586;37.730;2022-08-18T05:29:18;45.92;;;31.48;;
62711;SDS011;48772;55.586;37.730;2022-08-18T05:31:48;45.15;;;32.15;;
62711;SDS011;48772;55.586;37.730;2022-08-18T05:34:17;50.75;;;33.30;;
62711;SDS011;48772;55.586;37.730;2022-08-18T05:41:49;51.63;;;33.45;;
62711;SDS011;48772;55.586;37.730;2022-08-18T05:44:28;46.17;;;33.70;;
62711;SDS011;48772;55.586;37.730;2022-08-18T05:47:02;45.95;;;31.38;;
62711;SDS011;48772;55.586;37.730;2022-08-18T05:49:31;46.70;;;32.45;;
62711;SDS011;48772;55.586;37.730;2022-08-18T05:52:04;43.10;;;29.63;;
62711;SDS011;48772;55.586;37.730;2022-08-18T05:54:41;48.78;;;30.30;;
62711;SDS011;48772;55.586;37.730;2022-08-18T05:57:30;46.70;;;27.77;;
62711;SDS011;48772;55.586;37.730;2022-08-18T06:00:02;36.13;;;28.52;;
62711;SDS011;48772;55.586;37.730;2022-08-18T06:05:29;36.17;;;24.77;;
62711;SDS011;48772;55.586;37.730;2022-08-18T06:08:02;40.65;;;25.10;;
62711;SDS011;48772;55.586;37.730;2022-08-18T06:10:37;36.22;;;23.90;;
62711;SDS011;48772;55.586;37.730;2022-08-18T06:13:12;34.50;;;23.25;;
62711;SDS011;48772;55.586;37.730;2022-08-18T06:18:09;34.40;;;22.02;;
62711;SDS011;48772;55.586;37.730;2022-08-18T06:24:09;35.63;;;21.70;;
62711;SDS011;48772;55.586;37.730;2022-08-18T06:26:35;32.00;;;22.08;;
62711;SDS011;48772;55.586;37.730;2022-08-18T06:29:12;34.28;;;21.55;;
62711;SDS011;48772;55.586;37.730;2022-08-18T06:40:40;32.00;;;20.77;;
62711;SDS011;48772;55.586;37.730;2022-08-18T06:43:08;33.97;;;20.02;;
62711;SDS011;48772;55.586;37.730;2022-08-18T06:45:37;30.65;;;20.30;;
62711;SDS011;48772;55.586;37.730;2022-08-18T06:48:26;28.15;;;18.45;;
62711;SDS011;48772;55.586;37.730;2022-08-18T06:51:06;31.15;;;19.60;;
62711;SDS011;48772;55.586;37.730;2022-08-18T06:56:21;24.27;;;17.33;;
62711;SDS011;48772;55.586;37.730;2022-08-18T06:58:49;26.10;;;19.15;;
62711;SDS011;48772;55.586;37.730;2022-08-18T07:01:20;28.13;;;17.63;;
62711;SDS011;48772;55.586;37.730;2022-08-18T07:03:51;30.15;;;16.15;;
62711;SDS011;48772;55.586;37.730;2022-08-18T07:08:47;26.35;;;15.73;;
62711;SDS011;48772;55.586;37.730;2022-08-18T07:13:50;27.58;;;14.20;;
62711;SDS011;48772;55.586;37.730;2022-08-18T07:16:22;24.48;;;14.77;;
62711;SDS011;48772;55.586;37.730;2022-08-18T07:18:50;23.13;;;15.20;;
62711;SDS011;48772;55.586;37.730;2022-08-18T07:21:27;28.13;;;14.13;;
62711;SDS011;48772;55.586;37.730;2022-08-18T07:24:41;26.20;;;13.88;;
62711;SDS011;48772;55.586;37.730;2022-08-18T07:35:05;29.98;;;12.52;;
62711;SDS011;48772;55.586;37.730;2022-08-18T07:40:19;14.07;;;8.20;;
62711;SDS011;48772;55.586;37.730;2022-08-18T07:48:09;16.13;;;8.32;;
62711;SDS011;48772;55.586;37.730;2022-08-18T07:50:52;17.40;;;7.28;;
62711;SDS011;48772;55.586;37.730;2022-08-18T08:04:15;16.83;;;4.78;;
62711;SDS011;48772;55.586;37.730;2022-08-18T08:06:53;14.05;;;5.60;;
62711;SDS011;48772;55.586;37.730;2022-08-18T08:09:45;6.70;;;4.80;;
62711;SDS011;48772;55.586;37.730;2022-08-18T08:12:41;11.95;;;4.40;;
62711;SDS011;48772;55.586;37.730;2022-08-18T08:23:23;9.13;;;3.10;;
62711;SDS011;48772;55.586;37.730;2022-08-18T08:34:14;11.10;;;3.08;;
62711;SDS011;48772;55.586;37.730;2022-08-18T08:36:53;11.32;;;2.95;;
62711;SDS011;48772;55.586;37.730;2022-08-18T08:42:31;6.30;;;2.92;;
62711;SDS011;48772;55.586;37.730;2022-08-18T08:45:13;15.85;;;3.33;;
62711;SDS011;48772;55.586;37.730;2022-08-18T08:50:24;8.85;;;3.47;;
62711;SDS011;48772;55.586;37.730;2022-08-18T08:55:36;12.13;;;2.80;;
62711;SDS011;48772;55.586;37.730;2022-08-18T09:00:58;8.05;;;2.85;;
62711;SDS011;48772;55.586;37.730;2022-08-18T09:11:29;8.63;;;2.50;;
62711;SDS011;48772;55.586;37.730;2022-08-18T09:22:46;6.70;;;2.83;;
62711;SDS011;48772;55.586;37.730;2022-08-18T09:41:53;9.13;;;2.88;;
62711;SDS011;48772;55.586;37.730;2022-08-18T09:44:55;12.30;;;3.47;;
62711;SDS011;48772;55.586;37.730;2022-08-18T09:47:11;5.10;;;2.80;;
62711;SDS011;48772;55.586;37.730;2022-08-18T09:49:57;10.40;;;3.10;;
62711;SDS011;48772;55.586;37.730;2022-08-18T09:52:59;7.95;;;2.47;;
62711;SDS011;48772;55.586;37.730;2022-08-18T09:55:54;11.85;;;2.60;;
62711;SDS011;48772;55.586;37.730;2022-08-18T10:03:52;7.07;;;2.33;;
62711;SDS011;48772;55.586;37.730;2022-08-18T10:06:38;10.50;;;2.47;;
62711;SDS011;48772;55.586;37.730;2022-08-18T10:15:06;7.05;;;2.17;;
62711;SDS011;48772;55.586;37.730;2022-08-18T10:28:57;6.07;;;2.10;;
62711;SDS011;48772;55.586;37.730;2022-08-18T10:31:29;5.05;;;2.10;;
62711;SDS011;48772;55.586;37.730;2022-08-18T10:34:06;14.43;;;2.30;;
62711;SDS011;48772;55.586;37.730;2022-08-18T10:36:50;11.27;;;2.30;;
62711;SDS011;48772;55.586;37.730;2022-08-18T10:39:29;6.72;;;2.00;;
62711;SDS011;48772;55.586;37.730;2022-08-18T10:42:13;7.45;;;1.70;;
62711;SDS011;48772;55.586;37.730;2022-08-18T10:44:46;6.15;;;2.10;;
62711;SDS011;48772;55.586;37.730;2022-08-18T10:47:22;2.72;;;1.67;;
62711;SDS011;48772;55.586;37.730;2022-08-18T10:49:50;5.05;;;1.85;;
62711;SDS011;48772;55.586;37.730;2022-08-18T11:00:11;6.75;;;2.22;;
62711;SDS011;48772;55.586;37.730;2022-08-18T11:05:21;2.85;;;1.92;;
62711;SDS011;48772;55.586;37.730;2022-08-18T11:07:52;8.05;;;2.35;;
62711;SDS011;48772;55.586;37.730;2022-08-18T11:10:35;10.25;;;3.15;;
62711;SDS011;48772;55.586;37.730;2022-08-18T11:13:24;9.68;;;2.40;;
62711;SDS011;48772;55.586;37.730;2022-08-18T11:26:50;3.03;;;1.77;;
62711;SDS011;48772;55.586;37.730;2022-08-18T11:29:28;4.25;;;1.95;;
62711;SDS011;48772;55.586;37.730;2022-08-18T11:31:58;6.18;;;1.90;;
62711;SDS011;48772;55.586;37.730;2022-08-18T11:34:42;9.43;;;3.15;;
62711;SDS011;48772;55.586;37.730;2022-08-18T11:39:55;4.45;;;1.73;;
62711;SDS011;48772;55.586;37.730;2022-08-18T11:42:28;2.95;;;1.63;;
62711;SDS011;48772;55.586;37.730;2022-08-18T11:45:02;9.25;;;2.38;;
62711;SDS011;48772;55.586;37.730;2022-08-18T11:47:47;7.47;;;1.90;;
62711;SDS011;48772;55.586;37.730;2022-08-18T11:50:48;2.67;;;1.70;;
62711;SDS011;48772;55.586;37.730;2022-08-18T11:56:28;4.80;;;1.98;;
62711;SDS011;48772;55.586;37.730;2022-08-18T11:59:00;4.15;;;2.15;;
62711;SDS011;48772;55.586;37.730;2022-08-18T12:01:28;8.10;;;2.17;;
62711;SDS011;48772;55.586;37.730;2022-08-18T12:06:38;6.22;;;1.83;;
62711;SDS011;48772;55.586;37.730;2022-08-18T12:12:18;5.25;;;2.05;;
62711;SDS011;48772;55.586;37.730;2022-08-18T12:17:22;5.28;;;1.67;;
62711;SDS011;48772;55.586;37.730;2022-08-18T12:19:49;2.55;;;1.98;;
62711;SDS011;48772;55.586;37.730;2022-08-18T12:22:20;7.32;;;2.03;;
62711;SDS011;48772;55.586;37.730;2022-08-18T12:24:51;6.13;;;2.10;;
62711;SDS011;48772;55.586;37.730;2022-08-18T12:27:23;5.78;;;1.85;;
62711;SDS011;48772;55.586;37.730;2022-08-18T12:29:54;4.30;;;2.03;;
62711;SDS011;48772;55.586;37.730;2022-08-18T12:32:22;3.25;;;1.92;;
62711;SDS011;48772;55.586;37.730;2022-08-18T12:34:50;7.30;;;2.00;;
62711;SDS011;48772;55.586;37.730;2022-08-18T12:37:26;3.17;;;1.92;;
62711;SDS011;48772;55.586;37.730;2022-08-18T12:39:54;3.22;;;2.10;;
62711;SDS011;48772;55.586;37.730;2022-08-18T12:42:25;2.85;;;2.08;;
62711;SDS011;48772;55.586;37.730;2022-08-18T12:44:51;7.22;;;2.50;;
62711;SDS011;48772;55.586;37.730;2022-08-18T12:47:24;3.90;;;2.08;;
62711;SDS011;48772;55.586;37.730;2022-08-18T12:49:51;7.78;;;2.60;;
62711;SDS011;48772;55.586;37.730;2022-08-18T12:52:18;5.70;;;2.30;;
62711;SDS011;48772;55.586;37.730;2022-08-18T12:54:45;4.45;;;1.92;;
62711;SDS011;48772;55.586;37.730;2022-08-18T12:57:24;3.50;;;1.90;;
62711;SDS011;48772;55.586;37.730;2022-08-18T12:59:51;5.82;;;2.15;;
62711;SDS011;48772;55.586;37.730;2022-08-18T13:02:19;5.53;;;1.98;;
62711;SDS011;48772;55.586;37.730;2022-08-18T13:04:45;9.18;;;3.50;;
62711;SDS011;48772;55.586;37.730;2022-08-18T13:07:12;3.03;;;2.50;;
62711;SDS011;48772;55.586;37.730;2022-08-18T13:09:43;3.60;;;2.90;;
62711;SDS011;48772;55.586;37.730;2022-08-18T13:12:09;8.18;;;4.00;;
62711;SDS011;48772;55.586;37.730;2022-08-18T13:14:36;8.93;;;2.53;;
62711;SDS011;48772;55.586;37.730;2022-08-18T13:17:02;7.97;;;2.35;;
62711;SDS011;48772;55.586;37.730;2022-08-18T13:19:28;7.10;;;2.13;;
62711;SDS011;48772;55.586;37.730;2022-08-18T13:21:54;7.72;;;2.60;;
62711;SDS011;48772;55.586;37.730;2022-08-18T13:24:20;9.57;;;2.53;;
62711;SDS011;48772;55.586;37.730;2022-08-18T13:26:48;7.75;;;2.80;;
62711;SDS011;48772;55.586;37.730;2022-08-18T13:29:15;8.65;;;2.47;;
62711;SDS011;48772;55.586;37.730;2022-08-18T13:31:41;3.53;;;1.92;;
62711;SDS011;48772;55.586;37.730;2022-08-18T13:34:08;4.10;;;2.38;;
62711;SDS011;48772;55.586;37.730;2022-08-18T13:36:35;6.55;;;2.38;;
62711;SDS011;48772;55.586;37.730;2022-08-18T13:39:14;5.88;;;2.40;;
62711;SDS011;48772;55.586;37.730;2022-08-18T13:41:43;7.57;;;2.70;;
62711;SDS011;48772;55.586;37.730;2022-08-18T13:44:12;9.73;;;3.13;;
62711;SDS011;48772;55.586;37.730;2022-08-18T13:46:40;4.95;;;2.30;;
62711;SDS011;48772;55.586;37.730;2022-08-18T13:49:13;12.13;;;2.60;;
62711;SDS011;48772;55.586;37.730;2022-08-18T13:51:40;6.85;;;2.47;;
62711;SDS011;48772;55.586;37.730;2022-08-18T13:54:08;9.77;;;2.50;;
62711;SDS011;48772;55.586;37.730;2022-08-18T13:56:36;9.30;;;2.38;;
62711;SDS011;48772;55.586;37.730;2022-08-18T13:59:02;10.70;;;2.33;;
62711;SDS011;48772;55.586;37.730;2022-08-18T14:01:29;7.18;;;2.53;;
62711;SDS011;48772;55.586;37.730;2022-08-18T14:03:56;5.70;;;2.63;;
62711;SDS011;48772;55.586;37.730;2022-08-18T14:06:22;6.93;;;2.55;;
62711;SDS011;48772;55.586;37.730;2022-08-18T14:08:48;12.63;;;2.60;;
62711;SDS011;48772;55.586;37.730;2022-08-18T14:11:14;6.32;;;2.42;;
62711;SDS011;48772;55.586;37.730;2022-08-18T14:13:40;11.23;;;3.08;;
62711;SDS011;48772;55.586;37.730;2022-08-18T14:16:06;8.75;;;2.65;;
62711;SDS011;48772;55.586;37.730;2022-08-18T14:18:32;4.10;;;2.65;;
62711;SDS011;48772;55.586;37.730;2022-08-18T14:20:58;8.85;;;2.83;;
62711;SDS011;48772;55.586;37.730;2022-08-18T14:23:42;8.52;;;3.50;;
62711;SDS011;48772;55.586;37.730;2022-08-18T14:26:26;8.20;;;2.88;;
62711;SDS011;48772;55.586;37.730;2022-08-18T14:29:11;7.57;;;2.42;;
62711;SDS011;48772;55.586;37.730;2022-08-18T14:31:36;11.75;;;3.20;;
62711;SDS011;48772;55.586;37.730;2022-08-18T14:34:02;7.93;;;3.10;;
62711;SDS011;48772;55.586;37.730;2022-08-18T14:36:28;9.77;;;3.03;;
62711;SDS011;48772;55.586;37.730;2022-08-18T14:38:54;12.85;;;3.00;;
62711;SDS011;48772;55.586;37.730;2022-08-18T14:41:21;16.05;;;3.20;;
62711;SDS011;48772;55.586;37.730;2022-08-18T14:43:47;9.07;;;3.40;;
62711;SDS011;48772;55.586;37.730;2022-08-18T14:46:12;7.28;;;2.90;;
62711;SDS011;48772;55.586;37.730;2022-08-18T14:48:38;7.03;;;2.38;;
62711;SDS011;48772;55.586;37.730;2022-08-18T14:51:05;3.65;;;2.20;;
62711;SDS011;48772;55.586;37.730;2022-08-18T14:53:32;4.47;;;2.92;;
62711;SDS011;48772;55.586;37.730;2022-08-18T14:55:58;8.35;;;2.60;;
62711;SDS011;48772;55.586;37.730;2022-08-18T14:58:25;8.10;;;2.92;;
62711;SDS011;48772;55.586;37.730;2022-08-18T15:01:03;2.90;;;2.58;;
62711;SDS011;48772;55.586;37.730;2022-08-18T15:03:32;7.53;;;2.60;;
62711;SDS011;48772;55.586;37.730;2022-08-18T15:05:59;8.38;;;3.58;;
62711;SDS011;48772;55.586;37.730;2022-08-18T15:08:26;7.82;;;3.20;;
62711;SDS011;48772;55.586;37.730;2022-08-18T15:10:53;10.57;;;3.70;;
62711;SDS011;48772;55.586;37.730;2022-08-18T15:13:20;11.18;;;3.55;;
62711;SDS011;48772;55.586;37.730;2022-08-18T15:15:46;13.13;;;3.47;;
62711;SDS011;48772;55.586;37.730;2022-08-18T15:18:12;7.07;;;2.97;;
62711;SDS011;48772;55.586;37.730;2022-08-18T15:20:37;7.05;;;3.70;;
62711;SDS011;48772;55.586;37.730;2022-08-18T15:23:25;9.15;;;3.65;;
62711;SDS011;48772;55.586;37.730;2022-08-18T15:26:10;7.18;;;3.47;;
62711;SDS011;48772;55.586;37.730;2022-08-18T15:28:36;12.82;;;3.33;;
62711;SDS011;48772;55.586;37.730;2022-08-18T15:31:03;7.70;;;3.28;;
62711;SDS011;48772;55.586;37.730;2022-08-18T15:33:30;10.43;;;3.20;;
62711;SDS011;48772;55.586;37.730;2022-08-18T15:35:56;9.57;;;3.72;;
62711;SDS011;48772;55.586;37.730;2022-08-18T15:38:22;10.07;;;4.00;;
62711;SDS011;48772;55.586;37.730;2022-08-18T15:40:50;13.40;;;3.60;;
62711;SDS011;48772;55.586;37.730;2022-08-18T15:43:18;7.45;;;3.55;;
62711;SDS011;48772;55.586;37.730;2022-08-18T15:45:44;13.98;;;3.58;;
62711;SDS011;48772;55.586;37.730;2022-08-18T15:48:15;10.30;;;3.90;;
62711;SDS011;48772;55.586;37.730;2022-08-18T15:50:44;11.10;;;3.10;;
62711;SDS011;48772;55.586;37.730;2022-08-18T15:53:14;7.85;;;2.92;;
62711;SDS011;48772;55.586;37.730;2022-08-18T15:55:42;5.18;;;2.80;;
62711;SDS011;48772;55.586;37.730;2022-08-18T15:58:09;9.13;;;2.92;;
62711;SDS011;48772;55.586;37.730;2022-08-18T16:00:38;6.55;;;2.60;;
62711;SDS011;48772;55.586;37.730;2022-08-18T16:03:07;8.93;;;2.70;;
62711;SDS011;48772;55.586;37.730;2022-08-18T16:05:38;7.30;;;2.55;;
62711;SDS011;48772;55.586;37.730;2022-08-18T16:08:10;7.78;;;2.88;;
62711;SDS011;48772;55.586;37.730;2022-08-18T16:10:37;8.35;;;3.03;;
62711;SDS011;48772;55.586;37.730;2022-08-18T16:13:05;8.43;;;3.20;;
62711;SDS011;48772;55.586;37.730;2022-08-18T16:15:33;12.63;;;3.92;;
62711;SDS011;48772;55.586;37.730;2022-08-18T16:18:01;12.77;;;3.28;;
62711;SDS011;48772;55.586;37.730;2022-08-18T16:20:33;9.18;;;2.80;;
62711;SDS011;48772;55.586;37.730;2022-08-18T16:23:00;9.88;;;2.83;;
62711;SDS011;48772;55.586;37.730;2022-08-18T16:25:26;7.32;;;3.28;;
62711;SDS011;48772;55.586;37.730;2022-08-18T16:27:52;10.68;;;3.75;;
62711;SDS011;48772;55.586;37.730;2022-08-18T16:30:20;7.93;;;4.00;;
62711;SDS011;48772;55.586;37.730;2022-08-18T16:32:47;11.65;;;4.55;;
62711;SDS011;48772;55.586;37.730;2022-08-18T16:35:14;12.38;;;4.10;;
62711;SDS011;48772;55.586;37.730;2022-08-18T16:37:45;13.60;;;4.47;;
62711;SDS011;48772;55.586;37.730;2022-08-18T16:40:15;7.93;;;4.00;;
62711;SDS011;48772;55.586;37.730;2022-08-18T16:42:43;9.88;;;4.00;;
62711;SDS011;48772;55.586;37.730;2022-08-18T16:45:10;10.45;;;4.40;;
62711;SDS011;48772;55.586;37.730;2022-08-18T16:47:37;11.43;;;4.25;;
62711;SDS011;48772;55.586;37.730;2022-08-18T16:50:06;10.32;;;3.33;;
62711;SDS011;48772;55.586;37.730;2022-08-18T16:52:33;8.15;;;4.13;;
62711;SDS011;48772;55.586;37.730;2022-08-18T16:54:59;14.95;;;4.85;;
62711;SDS011;48772;55.586;37.730;2022-08-18T16:57:25;13.18;;;5.00;;
62711;SDS011;48772;55.586;37.730;2022-08-18T17:00:09;15.35;;;4.38;;
62711;SDS011;48772;55.586;37.730;2022-08-18T17:02:54;10.13;;;4.30;;
62711;SDS011;48772;55.586;37.730;2022-08-18T17:05:39;10.18;;;4.90;;
62711;SDS011;48772;55.586;37.730;2022-08-18T17:08:04;16.38;;;5.05;;
62711;SDS011;48772;55.586;37.730;2022-08-18T17:10:30;12.35;;;5.18;;
62711;SDS011;48772;55.586;37.730;2022-08-18T17:15:32;11.50;;;3.58;;
62711;SDS011;48772;55.586;37.730;2022-08-18T17:17:58;8.82;;;3.95;;
62711;SDS011;48772;55.586;37.730;2022-08-18T17:20:25;10.75;;;3.88;;
62711;SDS011;48772;55.586;37.730;2022-08-18T17:22:52;9.65;;;4.10;;
62711;SDS011;48772;55.586;37.730;2022-08-18T17:25:19;16.63;;;4.25;;
62711;SDS011;48772;55.586;37.730;2022-08-18T17:27:48;12.35;;;4.03;;
62711;SDS011;48772;55.586;37.730;2022-08-18T17:30:15;13.65;;;2.90;;
62711;SDS011;48772;55.586;37.730;2022-08-18T17:32:45;9.50;;;2.80;;
62711;SDS011;48772;55.586;37.730;2022-08-18T17:35:32;5.50;;;2.90;;
62711;SDS011;48772;55.586;37.730;2022-08-18T17:38:11;14.32;;;3.28;;
62711;SDS011;48772;55.586;37.730;2022-08-18T17:40:47;9.05;;;3.10;;
62711;SDS011;48772;55.586;37.730;2022-08-18T17:43:15;5.95;;;3.08;;